Time;durP1;ratioP1;P1;durP2;ratioP2;P2;SDS_P1;SDS_P2;PMS_P1;PMS_P2;Temp;Humidity;BMP_temperature;BMP_pressure;BME280_temperature;BME280_humidity;BME280_pressure;Samples;Min_cycle;Max_cycle;Signal;HPM_P1;HPM_P2
2021/06/10 00:01:35;;;;;;;29.63;22.85;;;14.10;99.90;;;;;;5054264;28;20043;-75
2021/06/10 00:04:00;;;;;;;35.25;25.77;;;14.10;99.90;;;;;;5059637;28;20017;-74
2021/06/10 00:06:26;;;;;;;33.53;24.85;;;14.10;99.90;;;;;;5073017;28;20029;-75
2021/06/10 00:08:51;;;;;;;37.30;25.50;;;14.10;99.90;;;;;;5054857;28;20020;-74
2021/06/10 00:11:17;;;;;;;45.53;26.92;;;14.10;99.90;;;;;;5072171;28;20025;-72
2021/06/10 00:13:43;;;;;;;43.78;27.95;;;14.00;99.90;;;;;;5072733;28;20305;-73
2021/06/10 00:16:09;;;;;;;35.30;24.35;;;14.00;99.90;;;;;;5054449;28;20460;-75
2021/06/10 00:18:34;;;;;;;29.50;23.08;;;13.90;99.90;;;;;;5054939;28;20025;-75
2021/06/10 00:21:00;;;;;;;39.97;23.80;;;13.80;99.90;;;;;;5071984;28;20033;-76
2021/06/10 00:23:26;;;;;;;33.17;23.55;;;13.80;99.90;;;;;;5072809;28;20021;-75
2021/06/10 00:25:52;;;;;;;30.45;22.35;;;13.90;99.90;;;;;;5072044;28;20024;-73
2021/06/10 00:28:17;;;;;;;33.45;25.33;;;13.90;99.90;;;;;;5072126;28;20036;-75
2021/06/10 00:30:43;;;;;;;37.60;25.40;;;13.90;99.90;;;;;;5071866;28;20060;-73
2021/06/10 00:33:10;;;;;;;43.25;28.02;;;13.90;99.90;;;;;;5072230;28;20035;-75
2021/06/10 00:35:36;;;;;;;34.28;26.50;;;14.00;99.90;;;;;;5071332;28;20017;-74
2021/06/10 00:38:03;;;;;;;41.13;27.20;;;13.90;99.90;;;;;;5072898;28;20028;-75
2021/06/10 00:40:33;;;;;;;32.92;25.50;;;13.90;99.90;;;;;;5071586;28;20402;-74
2021/06/10 00:42:59;;;;;;;36.28;26.13;;;13.90;99.90;;;;;;5072186;28;20242;-75
2021/06/10 00:45:25;;;;;;;30.80;24.05;;;14.00;99.90;;;;;;5072082;28;20052;-75
2021/06/10 00:47:53;;;;;;;28.30;21.45;;;14.00;99.90;;;;;;5072304;28;20102;-75
2021/06/10 00:50:34;;;;;;;21.15;18.85;;;14.00;99.90;;;;;;5071345;28;20025;-75
2021/06/10 00:53:00;;;;;;;21.15;17.42;;;13.90;99.90;;;;;;5071790;28;20024;-73
2021/06/10 00:55:26;;;;;;;26.90;19.52;;;13.80;99.90;;;;;;5072013;28;20047;-73
2021/06/10 00:57:52;;;;;;;25.27;19.27;;;13.90;99.90;;;;;;5074200;28;20044;-74
2021/06/10 01:00:18;;;;;;;38.47;26.20;;;14.10;99.90;;;;;;5076419;28;20024;-75
2021/06/10 01:02:44;;;;;;;41.03;26.25;;;14.20;99.90;;;;;;5057858;28;20406;-73
2021/06/10 01:05:11;;;;;;;47.20;27.73;;;14.30;99.90;;;;;;5077418;28;20012;-75
2021/06/10 01:08:00;;;;;;;76.07;31.63;;;14.20;99.90;;;;;;5072110;28;20375;-74
2021/06/10 01:10:56;;;;;;;54.13;30.08;;;14.30;99.90;;;;;;5071762;28;20020;-75
2021/06/10 01:13:37;;;;;;;39.10;26.92;;;14.40;99.90;;;;;;5054787;28;20024;-75
2021/06/10 01:16:04;;;;;;;38.20;27.88;;;14.40;99.90;;;;;;5072891;28;20483;-75
2021/06/10 01:18:31;;;;;;;34.75;23.58;;;14.20;99.90;;;;;;5071920;28;20074;-74
2021/06/10 01:20:58;;;;;;;34.58;22.05;;;14.00;99.90;;;;;;5070652;28;20120;-73
2021/06/10 01:23:49;;;;;;;36.03;24.20;;;13.90;99.90;;;;;;5071588;28;20078;-75
2021/06/10 01:26:31;;;;;;;31.63;21.00;;;13.90;99.90;;;;;;5053359;28;20336;-75
2021/06/10 01:29:00;;;;;;;28.13;20.88;;;13.80;99.90;;;;;;5071518;28;20407;-75
2021/06/10 01:31:26;;;;;;;50.63;22.75;;;13.60;99.90;;;;;;5071056;28;20028;-74
2021/06/10 01:33:57;;;;;;;34.45;23.00;;;13.70;99.90;;;;;;5071778;28;20440;-75
2021/06/10 01:36:27;;;;;;;40.33;23.90;;;13.70;99.90;;;;;;5071949;28;20081;-73
2021/06/10 01:38:55;;;;;;;48.83;23.30;;;13.80;99.90;;;;;;5072671;28;20053;-75
2021/06/10 01:41:23;;;;;;;36.33;26.35;;;13.90;99.90;;;;;;5071046;28;20024;-73
2021/06/10 01:43:51;;;;;;;45.58;27.85;;;14.10;99.90;;;;;;5071453;28;20059;-75
2021/06/10 01:46:18;;;;;;;31.60;24.75;;;14.00;99.90;;;;;;5071361;28;20017;-76
2021/06/10 01:48:47;;;;;;;34.63;25.23;;;13.90;99.90;;;;;;5071678;28;20025;-74
2021/06/10 01:51:15;;;;;;;37.13;24.85;;;14.00;99.90;;;;;;5070942;28;20031;-74
2021/06/10 01:53:43;;;;;;;32.88;25.95;;;14.00;99.90;;;;;;5071487;28;20510;-75
2021/06/10 01:56:10;;;;;;;33.40;23.80;;;14.00;99.90;;;;;;5074908;28;20029;-75
2021/06/10 01:58:37;;;;;;;72.32;26.10;;;14.10;99.90;;;;;;5077114;28;20025;-74
2021/06/10 02:01:05;;;;;;;54.25;25.92;;;14.00;99.90;;;;;;5076324;28;20166;-75
2021/06/10 02:03:32;;;;;;;52.80;29.17;;;14.10;99.90;;;;;;5075179;28;20159;-75
2021/06/10 02:05:59;;;;;;;34.45;25.67;;;14.30;99.90;;;;;;5074475;28;20179;-73
2021/06/10 02:08:25;;;;;;;29.60;24.15;;;14.20;99.90;;;;;;5074982;28;20025;-74
2021/06/10 02:10:55;;;;;;;31.88;23.38;;;14.10;99.90;;;;;;5074390;28;20067;-74
2021/06/10 02:13:24;;;;;;;33.33;20.50;;;13.90;99.90;;;;;;5074822;28;20027;-73
2021/06/10 02:15:52;;;;;;;25.70;21.25;;;13.80;99.90;;;;;;5075437;28;20028;-74
2021/06/10 02:18:18;;;;;;;23.45;19.92;;;13.70;99.90;;;;;;5075608;28;20024;-73
2021/06/10 02:20:44;;;;;;;32.53;22.05;;;13.60;99.90;;;;;;5074491;28;20031;-72
2021/06/10 02:23:10;;;;;;;22.98;19.38;;;13.60;99.90;;;;;;5076699;28;20086;-73
2021/06/10 02:25:36;;;;;;;45.38;20.02;;;13.60;99.90;;;;;;5078026;28;20020;-74
2021/06/10 02:28:04;;;;;;;23.27;20.02;;;13.60;99.90;;;;;;5076475;28;20040;-74
2021/06/10 02:30:31;;;;;;;55.35;21.88;;;13.60;99.90;;;;;;5075969;28;20449;-74
2021/06/10 02:32:57;;;;;;;26.50;19.42;;;13.60;99.90;;;;;;5075552;28;20017;-73
2021/06/10 02:35:23;;;;;;;37.45;22.35;;;13.60;99.90;;;;;;5077631;28;20024;-74
2021/06/10 02:37:51;;;;;;;30.60;21.83;;;13.70;99.90;;;;;;5077315;28;20024;-73
2021/06/10 02:40:33;;;;;;;25.08;21.10;;;13.60;99.90;;;;;;5078604;28;20013;-74
2021/06/10 02:43:03;;;;;;;31.85;20.73;;;13.60;99.90;;;;;;5077416;28;20025;-73
2021/06/10 02:45:29;;;;;;;47.28;20.60;;;13.50;99.90;;;;;;5081005;28;20048;-73
2021/06/10 02:47:57;;;;;;;37.03;21.85;;;13.30;99.90;;;;;;5078982;28;20048;-72
2021/06/10 02:50:25;;;;;;;32.63;20.85;;;13.40;99.90;;;;;;5074101;28;20020;-72
2021/06/10 02:52:51;;;;;;;66.15;22.40;;;13.20;99.90;;;;;;5056847;28;20393;-71
2021/06/10 02:55:19;;;;;;;43.05;20.25;;;13.30;99.90;;;;;;5074476;28;20025;-72
2021/06/10 02:57:48;;;;;;;30.80;23.08;;;13.20;99.90;;;;;;5073853;28;20607;-73
2021/06/10 03:00:16;;;;;;;56.92;23.85;;;13.20;99.90;;;;;;5073235;28;20024;-74
2021/06/10 03:02:42;;;;;;;40.08;22.58;;;13.20;99.90;;;;;;5074134;28;20024;-73
2021/06/10 03:05:10;;;;;;;37.83;25.02;;;13.40;99.90;;;;;;5074028;28;20490;-72
2021/06/10 03:07:36;;;;;;;56.40;25.80;;;13.40;99.90;;;;;;5073840;28;20103;-72
2021/06/10 03:10:08;;;;;;;35.92;23.27;;;13.50;99.90;;;;;;5073292;28;20146;-73
2021/06/10 03:12:35;;;;;;;37.87;24.37;;;13.50;99.90;;;;;;5073383;28;20540;-72
2021/06/10 03:15:01;;;;;;;30.35;23.55;;;13.50;99.90;;;;;;5074203;28;20107;-72
2021/06/10 03:17:28;;;;;;;37.45;24.88;;;13.60;99.90;;;;;;5073659;28;20028;-71
2021/06/10 03:19:54;;;;;;;28.90;23.10;;;13.60;99.90;;;;;;5054861;28;20108;-73
2021/06/10 03:22:20;;;;;;;21.85;17.73;;;13.60;99.90;;;;;;5073931;28;20020;-71
2021/06/10 03:24:46;;;;;;;20.52;17.88;;;13.40;99.90;;;;;;5055524;28;20398;-71
2021/06/10 03:27:13;;;;;;;23.67;18.63;;;13.40;99.90;;;;;;5072950;28;20028;-73
2021/06/10 03:29:40;;;;;;;30.27;21.45;;;13.40;99.90;;;;;;5073709;28;20039;-71
2021/06/10 03:32:06;;;;;;;28.58;19.50;;;13.60;99.90;;;;;;5073529;28;20093;-71
2021/06/10 03:34:33;;;;;;;29.17;20.65;;;13.50;99.90;;;;;;5073119;28;20029;-71
2021/06/10 03:37:00;;;;;;;29.67;20.55;;;13.60;99.90;;;;;;5072224;28;20078;-71
2021/06/10 03:39:27;;;;;;;28.10;21.23;;;13.60;99.90;;;;;;5073000;28;20035;-72
2021/06/10 03:41:54;;;;;;;35.22;21.83;;;13.60;99.90;;;;;;5072866;28;20552;-71
2021/06/10 03:44:20;;;;;;;30.85;21.52;;;13.60;99.90;;;;;;5073126;28;20025;-71
2021/06/10 03:46:46;;;;;;;42.92;20.70;;;13.70;99.90;;;;;;5073188;28;20027;-72
2021/06/10 03:49:12;;;;;;;28.77;19.23;;;13.60;99.90;;;;;;5054991;28;20483;-71
2021/06/10 03:51:39;;;;;;;22.42;18.63;;;13.50;99.90;;;;;;5072835;28;20032;-72
2021/06/10 03:54:07;;;;;;;32.17;21.10;;;13.50;99.90;;;;;;5072745;28;20024;-71
2021/06/10 03:56:33;;;;;;;34.08;20.55;;;13.50;99.90;;;;;;5072488;28;20402;-73
2021/06/10 03:58:59;;;;;;;29.15;19.45;;;13.30;99.90;;;;;;5072913;28;20032;-75
2021/06/10 04:01:25;;;;;;;31.88;21.98;;;13.20;99.90;;;;;;5072157;28;20031;-73
2021/06/10 04:03:50;;;;;;;28.65;19.55;;;13.30;99.90;;;;;;5072971;28;20021;-73
2021/06/10 04:06:17;;;;;;;47.03;19.83;;;13.30;99.90;;;;;;5059759;28;20024;-74
2021/06/10 04:08:43;;;;;;;24.38;19.30;;;13.30;99.90;;;;;;5072842;28;20024;-75
2021/06/10 04:11:09;;;;;;;24.58;19.00;;;13.50;99.90;;;;;;5074465;28;20403;-74
2021/06/10 04:13:34;;;;;;;23.92;17.58;;;13.60;99.90;;;;;;5096241;28;20049;-75
2021/06/10 04:16:00;;;;;;;18.58;14.60;;;13.60;99.90;;;;;;5100164;28;20024;-74
2021/06/10 04:18:26;;;;;;;13.60;12.20;;;13.60;99.90;;;;;;5101273;28;20028;-74
2021/06/10 04:20:52;;;;;;;15.55;12.85;;;13.60;99.90;;;;;;5080013;28;20482;-74
2021/06/10 04:23:18;;;;;;;12.98;11.68;;;13.60;99.90;;;;;;5082307;28;20040;-74
2021/06/10 04:25:44;;;;;;;13.27;11.80;;;13.60;99.90;;;;;;5093762;28;20043;-73
2021/06/10 04:28:10;;;;;;;12.15;11.02;;;13.60;99.90;;;;;;5091852;28;20485;-76
2021/06/10 04:30:36;;;;;;;12.75;11.55;;;13.60;99.90;;;;;;5073271;28;20027;-74
2021/06/10 04:33:02;;;;;;;13.70;12.40;;;13.70;99.90;;;;;;5092465;28;20024;-76
2021/06/10 04:35:28;;;;;;;23.48;12.40;;;13.80;99.90;;;;;;5092286;28;20051;-72
2021/06/10 04:37:53;;;;;;;13.88;12.27;;;13.70;99.90;;;;;;5091457;28;20028;-71
2021/06/10 04:40:19;;;;;;;26.80;12.30;;;13.60;99.90;;;;;;5091247;28;20027;-74
2021/06/10 04:42:45;;;;;;;14.73;12.32;;;13.50;99.90;;;;;;5073504;28;20032;-71
2021/06/10 04:45:11;;;;;;;36.42;13.35;;;13.30;99.90;;;;;;5063669;28;20445;-73
2021/06/10 04:47:37;;;;;;;16.48;13.50;;;13.20;99.90;;;;;;5032799;28;20025;-72
2021/06/10 04:50:06;;;;;;;41.35;13.75;;;13.00;99.90;;;;;;5062988;28;20031;-73
2021/06/10 04:52:32;;;;;;;25.13;13.05;;;13.20;99.90;;;;;;5070770;28;20024;-72
2021/06/10 04:54:58;;;;;;;17.67;13.98;;;13.10;99.90;;;;;;5071301;28;20032;-73
2021/06/10 04:57:23;;;;;;;14.90;13.32;;;13.20;99.90;;;;;;5071283;28;20398;-72
2021/06/10 04:59:49;;;;;;;14.98;12.70;;;13.30;99.90;;;;;;5066211;28;20065;-71
2021/06/10 05:02:16;;;;;;;14.82;12.88;;;13.20;99.90;;;;;;5070533;28;20029;-73
2021/06/10 05:04:42;;;;;;;15.30;13.07;;;13.40;99.90;;;;;;5053104;28;20060;-72
2021/06/10 05:07:09;;;;;;;13.27;11.88;;;13.60;99.90;;;;;;5052888;28;20059;-72
2021/06/10 05:09:35;;;;;;;13.98;12.57;;;13.80;99.90;;;;;;5070609;28;20020;-71
2021/06/10 05:12:01;;;;;;;11.52;10.27;;;13.90;99.90;;;;;;5071311;28;20069;-72
2021/06/10 05:14:26;;;;;;;12.25;11.02;;;14.00;99.90;;;;;;5053038;28;20024;-72
2021/06/10 05:16:52;;;;;;;10.35;9.25;;;14.10;99.90;;;;;;5071163;28;20478;-72
2021/06/10 05:19:18;;;;;;;8.63;7.90;;;14.40;99.90;;;;;;5070177;28;21758;-72
2021/06/10 05:21:43;;;;;;;9.35;8.55;;;14.40;99.90;;;;;;5070177;28;20526;-73
2021/06/10 05:24:11;;;;;;;9.02;8.23;;;14.20;99.90;;;;;;5070978;28;20025;-71
2021/06/10 05:26:37;;;;;;;8.52;7.20;;;14.20;99.90;;;;;;5070916;28;20474;-71
2021/06/10 05:29:04;;;;;;;8.98;8.18;;;14.00;99.90;;;;;;5070926;28;20040;-71
2021/06/10 05:31:31;;;;;;;9.60;8.60;;;13.80;99.90;;;;;;5070463;28;20479;-71
2021/06/10 05:33:56;;;;;;;8.80;8.00;;;13.60;99.90;;;;;;5052574;28;20044;-72
2021/06/10 05:36:22;;;;;;;10.60;8.80;;;13.60;99.90;;;;;;5070802;28;20027;-72
2021/06/10 05:38:47;;;;;;;9.38;8.38;;;13.60;99.90;;;;;;5071114;28;20059;-72
2021/06/10 05:41:13;;;;;;;10.07;9.18;;;13.60;99.90;;;;;;5070065;28;20025;-74
2021/06/10 05:43:39;;;;;;;8.63;7.93;;;13.60;99.90;;;;;;5071468;28;20031;-73
2021/06/10 05:46:04;;;;;;;9.57;8.80;;;13.70;99.90;;;;;;5070936;28;20017;-73
2021/06/10 05:48:30;;;;;;;9.85;8.85;;;13.90;99.90;;;;;;5069441;28;20025;-73
2021/06/10 05:50:57;;;;;;;9.75;8.73;;;14.00;99.90;;;;;;5070251;28;20506;-73
2021/06/10 05:53:24;;;;;;;10.77;8.25;;;14.00;99.90;;;;;;5070867;28;20020;-72
2021/06/10 05:55:50;;;;;;;9.00;8.20;;;14.10;99.90;;;;;;5069432;28;20016;-72
2021/06/10 05:58:17;;;;;;;8.68;7.88;;;14.20;99.90;;;;;;5072373;28;20025;-72
2021/06/10 06:00:43;;;;;;;7.93;7.32;;;14.30;99.90;;;;;;5084323;28;20032;-74
2021/06/10 06:03:09;;;;;;;9.02;8.23;;;14.50;99.90;;;;;;5074004;28;20025;-73
2021/06/10 06:05:35;;;;;;;10.90;9.88;;;14.50;99.90;;;;;;5067143;28;20108;-73
2021/06/10 06:08:01;;;;;;;11.52;9.95;;;14.40;99.90;;;;;;5074389;28;20013;-74
2021/06/10 06:10:29;;;;;;;9.57;8.68;;;14.30;99.90;;;;;;5074282;28;20093;-73
2021/06/10 06:12:57;;;;;;;9.60;8.75;;;14.50;99.90;;;;;;5088734;28;20024;-74
2021/06/10 06:15:23;;;;;;;10.80;8.80;;;14.70;99.90;;;;;;5076945;28;20024;-73
2021/06/10 06:17:49;;;;;;;10.82;9.82;;;14.80;99.90;;;;;;5095271;28;20112;-73
2021/06/10 06:20:15;;;;;;;12.75;9.32;;;14.80;99.90;;;;;;5098130;28;20477;-73
2021/06/10 06:22:44;;;;;;;11.23;10.13;;;14.90;99.90;;;;;;5078718;28;20035;-73
2021/06/10 06:25:11;;;;;;;10.95;9.88;;;15.00;99.90;;;;;;5094093;28;20482;-72
2021/06/10 06:27:37;;;;;;;9.98;9.05;;;15.20;99.90;;;;;;5097989;28;20031;-71
2021/06/10 06:30:05;;;;;;;9.75;8.85;;;15.30;99.90;;;;;;5075943;28;20024;-72
2021/06/10 06:32:31;;;;;;;11.10;10.10;;;15.40;99.90;;;;;;5095560;28;20028;-72
2021/06/10 06:34:56;;;;;;;10.73;9.50;;;15.50;99.90;;;;;;5096670;28;20660;-73
2021/06/10 06:37:22;;;;;;;10.20;9.27;;;15.60;99.90;;;;;;5096333;28;20033;-73
2021/06/10 06:39:47;;;;;;;9.65;8.75;;;15.70;99.90;;;;;;5094216;28;20021;-73
2021/06/10 06:42:13;;;;;;;10.25;8.98;;;15.80;99.90;;;;;;5094548;28;20027;-70
2021/06/10 06:44:39;;;;;;;10.32;9.45;;;15.90;99.90;;;;;;5094712;28;20031;-71
2021/06/10 06:47:05;;;;;;;9.60;8.70;;;16.00;99.90;;;;;;5094175;28;20475;-71
2021/06/10 06:49:31;;;;;;;9.15;8.35;;;16.10;99.90;;;;;;5093798;28;20020;-71
2021/06/10 06:51:57;;;;;;;10.98;8.77;;;16.20;99.90;;;;;;5094699;28;20074;-73
2021/06/10 06:54:23;;;;;;;9.27;8.45;;;16.40;99.90;;;;;;5075611;28;20446;-73
2021/06/10 06:56:48;;;;;;;8.43;7.80;;;16.30;99.90;;;;;;5074142;28;20021;-72
2021/06/10 06:59:14;;;;;;;8.90;8.10;;;16.40;99.90;;;;;;5075071;28;20029;-73
2021/06/10 07:01:40;;;;;;;10.10;7.75;;;16.70;99.90;;;;;;5088094;28;20090;-72
2021/06/10 07:04:06;;;;;;;8.27;7.57;;;16.60;99.90;;;;;;5093887;28;20028;-71
2021/06/10 07:06:32;;;;;;;7.70;7.00;;;16.80;99.90;;;;;;5093805;28;20024;-71
2021/06/10 07:08:57;;;;;;;7.63;7.03;;;17.00;99.90;;;;;;5093238;28;20031;-72
2021/06/10 07:11:23;;;;;;;7.10;6.47;;;17.30;99.90;;;;;;5093119;28;20141;-72
2021/06/10 07:13:49;;;;;;;7.05;6.55;;;17.40;99.90;;;;;;5093679;28;20024;-72
2021/06/10 07:16:14;;;;;;;7.78;7.07;;;17.50;99.90;;;;;;5089214;28;20091;-71
2021/06/10 07:18:40;;;;;;;6.20;5.53;;;17.60;99.90;;;;;;5071932;28;20150;-73
2021/06/10 07:21:06;;;;;;;6.78;6.28;;;17.70;99.90;;;;;;5072144;28;20029;-72
2021/06/10 07:23:31;;;;;;;6.75;6.03;;;17.70;99.90;;;;;;5071621;28;20475;-72
2021/06/10 07:25:57;;;;;;;6.95;5.65;;;17.80;99.90;;;;;;5071909;28;20062;-73
2021/06/10 07:28:23;;;;;;;6.35;5.80;;;17.90;99.90;;;;;;5072810;28;20681;-72
2021/06/10 07:30:49;;;;;;;8.10;6.82;;;18.10;99.90;;;;;;5072629;28;20020;-72
2021/06/10 07:33:16;;;;;;;7.07;6.57;;;18.30;99.90;;;;;;5072776;28;20030;-73
2021/06/10 07:35:42;;;;;;;7.30;5.72;;;18.40;99.90;;;;;;5072702;28;20028;-73
2021/06/10 07:38:10;;;;;;;8.05;6.45;;;18.60;99.90;;;;;;5073070;28;20029;-73
2021/06/10 07:40:36;;;;;;;8.18;7.30;;;19.00;99.90;;;;;;5072059;28;20019;-73
2021/06/10 07:43:02;;;;;;;6.38;5.88;;;19.20;99.90;;;;;;5072981;28;20025;-74
2021/06/10 07:45:29;;;;;;;6.90;6.38;;;19.20;99.90;;;;;;5072838;28;20065;-74
2021/06/10 07:47:55;;;;;;;8.45;5.95;;;19.30;99.90;;;;;;5072583;28;20467;-73
2021/06/10 07:50:22;;;;;;;6.28;5.78;;;19.20;99.90;;;;;;5053920;28;20398;-74
2021/06/10 07:52:48;;;;;;;5.55;5.05;;;19.50;99.90;;;;;;5049486;28;20036;-73
2021/06/10 07:55:14;;;;;;;6.45;5.82;;;19.60;99.90;;;;;;5053408;28;20033;-74
2021/06/10 07:57:40;;;;;;;5.78;5.28;;;19.80;99.90;;;;;;5053376;28;20537;-74
2021/06/10 08:00:07;;;;;;;6.85;6.00;;;19.80;99.90;;;;;;5054528;28;20058;-73
2021/06/10 08:02:33;;;;;;;6.38;5.78;;;20.00;99.90;;;;;;5093024;28;20032;-73
2021/06/10 08:04:59;;;;;;;5.75;5.20;;;20.00;99.90;;;;;;5092678;28;20079;-73
2021/06/10 08:07:25;;;;;;;7.13;5.82;;;19.90;99.90;;;;;;5093284;28;20367;-73
2021/06/10 08:09:51;;;;;;;7.05;5.22;;;20.20;99.90;;;;;;5092402;28;20026;-74
2021/06/10 08:12:16;;;;;;;6.60;6.00;;;20.50;99.90;;;;;;5093260;28;20063;-73
2021/06/10 08:14:42;;;;;;;9.15;6.38;;;20.40;99.90;;;;;;5092770;28;20055;-74
2021/06/10 08:17:08;;;;;;;6.63;6.03;;;20.20;99.90;;;;;;5092751;28;20687;-73
2021/06/10 08:19:35;;;;;;;7.97;6.05;;;20.20;99.90;;;;;;5091790;28;20376;-75
2021/06/10 08:22:01;;;;;;;8.05;7.00;;;20.40;99.90;;;;;;5091413;28;20020;-73
2021/06/10 08:24:26;;;;;;;9.50;8.52;;;20.60;99.90;;;;;;5073650;28;20024;-73
2021/06/10 08:26:52;;;;;;;7.55;6.85;;;20.80;99.90;;;;;;5072096;28;20436;-74
2021/06/10 08:29:18;;;;;;;7.47;5.95;;;21.00;99.90;;;;;;5072082;28;20017;-74
2021/06/10 08:31:44;;;;;;;6.30;5.82;;;21.20;99.90;;;;;;5070209;28;20028;-72
2021/06/10 08:34:10;;;;;;;6.45;5.95;;;21.30;99.90;;;;;;5072582;28;20503;-73
2021/06/10 08:36:35;;;;;;;6.03;5.47;;;21.60;99.90;;;;;;5071891;28;20371;-74
2021/06/10 08:39:02;;;;;;;6.78;6.07;;;22.00;99.90;;;;;;5071834;28;20036;-75
2021/06/10 08:41:28;;;;;;;6.90;6.00;;;22.40;99.90;;;;;;5071338;28;20024;-71
2021/06/10 08:43:57;;;;;;;4.22;3.90;;;23.00;99.90;;;;;;5095586;22;20505;-73
2021/06/10 08:46:25;;;;;;;7.00;4.97;;;23.40;99.90;;;;;;5076955;28;20363;-74
2021/06/10 08:48:51;;;;;;;6.13;4.45;;;23.70;99.90;;;;;;5080880;28;20535;-72
2021/06/10 08:51:18;;;;;;;4.90;4.50;;;23.80;99.90;;;;;;5090728;28;20063;-73
2021/06/10 08:53:45;;;;;;;4.65;4.35;;;23.90;99.90;;;;;;5079962;28;20024;-77
2021/06/10 08:56:11;;;;;;;4.38;3.97;;;24.50;99.90;;;;;;5071854;28;20067;-74
2021/06/10 08:58:37;;;;;;;5.00;4.60;;;24.80;99.90;;;;;;5071726;28;20385;-74
2021/06/10 09:01:03;;;;;;;7.93;4.65;;;24.60;99.90;;;;;;5079912;28;20106;-72
2021/06/10 09:03:34;;;;;;;4.60;4.30;;;24.00;99.90;;;;;;5091811;28;20031;-74
2021/06/10 09:06:08;;;;;;;4.78;4.30;;;24.30;99.90;;;;;;5071698;28;20024;-75
2021/06/10 09:08:38;;;;;;;4.85;4.32;;;24.80;99.90;;;;;;5070888;28;20047;-75
2021/06/10 09:11:20;;;;;;;4.60;4.22;;;24.90;99.90;;;;;;5071929;28;20020;-74
2021/06/10 09:13:47;;;;;;;4.40;3.97;;;25.60;99.90;;;;;;5072304;28;20462;-74
2021/06/10 09:16:27;;;;;;;4.85;4.45;;;26.10;99.90;;;;;;5071101;28;20028;-74
2021/06/10 09:19:03;;;;;;;4.47;4.03;;;25.60;99.90;;;;;;5072140;28;20025;-75
2021/06/10 09:21:41;;;;;;;4.82;4.47;;;26.00;99.90;;;;;;5070955;28;20050;-73
2021/06/10 09:24:25;;;;;;;4.53;4.18;;;27.10;99.90;;;;;;5081788;28;20015;-75
2021/06/10 09:27:02;;;;;;;4.85;4.00;;;28.10;99.90;;;;;;5082617;28;20029;-76
2021/06/10 09:29:51;;;;;;;3.97;3.78;;;29.00;99.90;;;;;;5071942;28;20116;-77
2021/06/10 09:32:19;;;;;;;4.15;3.88;;;28.30;99.90;;;;;;5073213;28;20028;-75
2021/06/10 09:34:56;;;;;;;4.53;4.13;;;27.00;99.90;;;;;;5082375;28;20414;-76
2021/06/10 09:37:40;;;;;;;4.93;4.47;;;25.50;99.90;;;;;;5091278;28;20024;-74
2021/06/10 09:40:07;;;;;;;4.97;4.57;;;25.60;99.90;;;;;;5094878;28;20016;-77
2021/06/10 09:42:36;;;;;;;5.05;4.55;;;25.80;99.90;;;;;;5075224;28;20047;-78
2021/06/10 09:45:04;;;;;;;5.22;4.80;;;26.60;99.90;;;;;;5097169;28;20042;-78
2021/06/10 09:47:44;;;;;;;4.72;4.32;;;27.00;99.90;;;;;;5096800;28;20020;-76
2021/06/10 09:50:23;;;;;;;4.57;4.15;;;27.30;99.90;;;;;;5098743;28;20043;-74
2021/06/10 09:52:54;;;;;;;5.03;4.53;;;27.70;99.90;;;;;;5094816;28;20028;-75
2021/06/10 09:55:43;;;;;;;5.03;4.53;;;27.60;99.90;;;;;;5098351;28;20439;-74
2021/06/10 09:58:12;;;;;;;6.18;5.60;;;27.50;99.90;;;;;;5094981;28;20558;-73
2021/06/10 10:00:48;;;;;;;5.72;4.95;;;26.60;99.90;;;;;;5072969;28;20059;-75
2021/06/10 10:03:29;;;;;;;5.90;5.50;;;26.70;99.90;;;;;;5094120;28;20048;-76
2021/06/10 10:06:04;;;;;;;6.78;6.05;;;26.60;99.90;;;;;;5095095;28;20024;-75
2021/06/10 10:08:31;;;;;;;7.20;6.63;;;26.70;99.90;;;;;;5080505;28;20021;-75
2021/06/10 10:11:07;;;;;;;7.72;6.45;;;27.20;99.90;;;;;;5078914;28;20021;-77
2021/06/10 10:13:33;;;;;;;7.07;6.47;;;27.60;99.90;;;;;;5079782;28;20071;-74
2021/06/10 10:16:03;;;;;;;6.18;5.65;;;27.50;99.90;;;;;;5080475;28;20028;-74
2021/06/10 10:18:29;;;;;;;6.35;5.45;;;27.60;99.90;;;;;;5079442;28;20458;-74
2021/06/10 10:21:00;;;;;;;6.97;6.38;;;28.20;99.90;;;;;;5071804;28;20032;-75
2021/06/10 10:23:25;;;;;;;5.93;5.20;;;27.80;99.90;;;;;;5070049;28;20024;-78
2021/06/10 10:25:56;;;;;;;6.65;6.15;;;27.20;99.90;;;;;;5075995;28;20028;-77
2021/06/10 10:28:22;;;;;;;6.32;5.78;;;26.40;99.90;;;;;;5092235;28;20339;-75
2021/06/10 10:30:48;;;;;;;11.00;6.53;;;26.70;99.90;;;;;;5080420;28;20028;-75
2021/06/10 10:33:14;;;;;;;7.32;6.70;;;27.00;99.90;;;;;;5078852;28;20032;-76
2021/06/10 10:35:57;;;;;;;7.45;6.38;;;27.40;99.90;;;;;;5083716;28;20056;-76
2021/06/10 10:38:40;;;;;;;6.97;6.43;;;26.80;99.90;;;;;;5097986;28;20024;-78
2021/06/10 10:41:11;;;;;;;6.35;5.85;;;26.70;99.90;;;;;;5101047;28;20016;-76
2021/06/10 10:43:37;;;;;;;6.63;6.13;;;26.60;99.90;;;;;;5104275;28;20396;-76
2021/06/10 10:46:07;;;;;;;6.88;6.20;;;26.40;99.90;;;;;;5095932;28;20032;-76
2021/06/10 10:48:35;;;;;;;6.53;6.07;;;26.20;99.90;;;;;;5075054;28;20249;-75
2021/06/10 10:51:01;;;;;;;6.97;6.50;;;26.20;99.90;;;;;;5073870;28;20392;-76
2021/06/10 10:53:41;;;;;;;6.63;6.00;;;25.80;99.90;;;;;;5086859;28;20103;-73
2021/06/10 10:56:09;;;;;;;7.57;6.75;;;25.60;99.90;;;;;;5085103;28;20359;-73
2021/06/10 10:58:37;;;;;;;8.43;6.82;;;25.60;99.90;;;;;;5083180;28;20375;-75
2021/06/10 11:01:04;;;;;;;7.07;6.57;;;25.60;99.90;;;;;;5081997;28;20389;-75
2021/06/10 11:03:37;;;;;;;9.00;7.60;;;25.50;99.90;;;;;;5083008;28;20020;-75
2021/06/10 11:06:21;;;;;;;8.40;7.65;;;25.00;99.90;;;;;;5076735;28;20746;-74
2021/06/10 11:09:15;;;;;;;7.55;6.45;;;24.70;99.90;;;;;;5090777;28;20440;-74
2021/06/10 11:12:00;;;;;;;5.20;4.75;;;24.20;99.90;;;;;;5082745;28;20432;-76
2021/06/10 11:14:41;;;;;;;4.55;4.05;;;24.00;99.90;;;;;;5081219;28;20027;-76
2021/06/10 11:17:19;;;;;;;3.72;3.50;;;24.40;99.90;;;;;;5074554;28;20059;-74
2021/06/10 11:20:01;;;;;;;5.45;3.30;;;25.10;99.90;;;;;;5084828;28;20043;-74
2021/06/10 11:22:49;;;;;;;4.60;4.20;;;25.90;99.90;;;;;;5081737;28;20019;-74
2021/06/10 11:25:38;;;;;;;5.15;4.75;;;26.40;99.90;;;;;;5093371;28;20107;-73
2021/06/10 11:28:09;;;;;;;5.10;4.63;;;26.60;99.90;;;;;;5093490;28;20020;-73
2021/06/10 11:30:37;;;;;;;5.30;4.90;;;26.40;99.90;;;;;;5090508;28;20386;-74
2021/06/10 11:33:02;;;;;;;5.82;5.25;;;26.70;99.90;;;;;;5074692;28;20033;-77
2021/06/10 11:35:53;;;;;;;6.53;5.97;;;27.40;99.90;;;;;;5087606;28;20074;-74
2021/06/10 11:38:23;;;;;;;7.03;5.85;;;27.30;99.90;;;;;;5079214;28;20085;-75
2021/06/10 11:40:55;;;;;;;8.63;6.00;;;27.50;99.90;;;;;;5088844;28;20039;-75
2021/06/10 11:43:22;;;;;;;6.70;6.20;;;27.60;99.90;;;;;;5100139;28;20032;-74
2021/06/10 11:45:50;;;;;;;6.25;5.75;;;27.90;99.50;;;;;;5103021;28;20012;-78
2021/06/10 11:48:34;;;;;;;6.15;5.60;;;28.30;99.90;;;;;;5092787;28;20099;-74
2021/06/10 11:51:00;;;;;;;6.60;6.10;;;29.20;98.70;;;;;;5081617;28;20021;-74
2021/06/10 11:53:30;;;;;;;5.95;5.10;;;30.80;96.20;;;;;;5083575;28;20020;-74
2021/06/10 11:55:57;;;;;;;6.05;5.45;;;31.30;95.90;;;;;;5083409;28;20032;-77
2021/06/10 11:58:26;;;;;;;6.75;4.68;;;30.00;93.80;;;;;;5084731;28;20048;-76
2021/06/10 12:00:53;;;;;;;4.57;4.28;;;29.80;95.30;;;;;;5079360;28;20362;-77
2021/06/10 12:03:20;;;;;;;7.82;4.90;;;30.30;93.90;;;;;;5082608;28;20382;-76
2021/06/10 12:05:49;;;;;;;4.10;3.80;;;31.80;92.20;;;;;;5084315;28;20023;-75
2021/06/10 12:08:21;;;;;;;4.05;3.85;;;32.70;89.80;;;;;;5084877;28;20026;-76
2021/06/10 12:10:52;;;;;;;4.82;4.20;;;32.30;85.60;;;;;;5082113;28;20489;-74
2021/06/10 12:13:26;;;;;;;5.70;5.30;;;31.40;89.50;;;;;;5079633;28;20028;-76
2021/06/10 12:15:53;;;;;;;6.60;5.93;;;29.90;92.70;;;;;;5086507;28;20016;-76
2021/06/10 12:18:20;;;;;;;6.63;6.07;;;28.80;93.70;;;;;;5082880;28;20016;-76
2021/06/10 12:20:47;;;;;;;5.97;5.47;;;27.20;96.90;;;;;;5081800;28;20024;-76
2021/06/10 12:23:38;;;;;;;6.32;5.72;;;26.40;98.00;;;;;;5083267;28;20456;-76
2021/06/10 12:26:10;;;;;;;6.40;5.80;;;26.40;98.20;;;;;;5079956;28;20516;-76
2021/06/10 12:28:48;;;;;;;9.00;5.75;;;25.70;98.50;;;;;;5082157;28;20020;-76
2021/06/10 12:31:28;;;;;;;9.68;6.63;;;25.30;99.90;;;;;;5083292;28;20055;-79
2021/06/10 12:33:58;;;;;;;15.07;5.88;;;24.70;99.90;;;;;;5087398;28;20030;-79
2021/06/10 12:36:30;;;;;;;13.95;5.55;;;24.20;99.90;;;;;;5089874;28;20081;-79
2021/06/10 12:39:04;;;;;;;20.08;6.40;;;23.80;99.90;;;;;;5077028;28;20097;-79
2021/06/10 12:41:36;;;;;;;11.52;5.38;;;22.90;99.90;;;;;;5084516;28;20099;-79
2021/06/10 12:44:18;;;;;;;20.65;5.90;;;22.10;99.90;;;;;;5091864;28;20025;-79
2021/06/10 12:46:51;;;;;;;15.40;5.68;;;22.20;99.90;;;;;;5072293;28;20086;-75